Aviation Digital Data Service (ADDS)

Output produced by METARs form (2103 UTC 20 October 2018)
found at http://www.aviationweather.gov/metar/data/
 
SEGU 201630Z 2018/2118 15007KT 9999 FEW026 SCT100 
     FM202300 22013KT CAVOK 
     FM210500 23008KT 9999 BKN020 BKN100 
     FM211500 16007KT 9999 SCT026 SCT100 TX31/2020Z TN21/2110Z
       
SELT 201630Z 2018/2118 16008KT 9999 SCT030 BKN300 
     TEMPO 2020/2023 35008KT SHRA SCT026TCU BKN033 
     FM210000 VRB03KT 9999 BKN030 BKN100 
     BECMG 2106/2107 34005KT 
     BECMG 2114/2115 SCT030 SCT100 TX21/2019Z TN07/2111Z
       
SEMT 201630Z 2018/2118 20008KT 9999 SCT020 
     BECMG 2100/2101 OVC020 
     BECMG 2105/2106 20004KT TX30/2020Z TN21/2110Z
       
SEQM 201630Z 2018/2118 02012KT 9999 SCT030 BKN300 
     PROB40 
     TEMPO 2020/2023 TSRA SCT026CB BKN040 
     FM210000 VRB03KT 9999 SCT030 BKN100 
     BECMG 2105/2106 5000 BCFG SCT005 BKN016 
     FM211300 VRB03KT 9999 SCT026 BKN100 
     BECMG 2115/2116 34008KT TX23/2019Z TN11/2111Z